createdAt,value
2017-08-19T00:00:17.151Z,96738.11
2017-08-19T00:02:42.903Z,96732.99
2017-08-19T00:05:08.683Z,96716.34
2017-08-19T00:07:34.462Z,96716.37
2017-08-19T00:10:00.299Z,96710.18
2017-08-19T00:12:26.087Z,96703.52
2017-08-19T00:14:51.833Z,96716.88
2017-08-19T00:17:17.635Z,96718.33
2017-08-19T00:19:43.392Z,96713.88
2017-08-19T00:22:09.186Z,96704.75
2017-08-19T00:24:34.967Z,96704.26
2017-08-19T00:27:00.716Z,96699.27
2017-08-19T00:29:26.518Z,96704.66
2017-08-19T00:31:52.279Z,96706.53
2017-08-19T00:34:18.071Z,96702.23
2017-08-19T00:36:43.859Z,96705.75
2017-08-19T00:39:09.642Z,96705.36
2017-08-19T00:41:35.399Z,96706.34
2017-08-19T00:44:01.288Z,96696.61
2017-08-19T00:46:27.048Z,96701.71
2017-08-19T00:48:52.818Z,96698.81
2017-08-19T00:51:18.646Z,96701.17
2017-08-19T00:53:44.455Z,96694.21
2017-08-19T00:56:10.224Z,96688.23
2017-08-19T00:58:36.041Z,96684.16
2017-08-19T01:01:01.786Z,96689.27
2017-08-19T01:03:27.556Z,96691.61
2017-08-19T01:05:53.364Z,96692.59
2017-08-19T01:08:19.155Z,96699.16
2017-08-19T01:10:44.952Z,96696.39
2017-08-19T01:13:10.703Z,96699.06
2017-08-19T01:15:36.496Z,96708.02
2017-08-19T01:18:02.294Z,96704.46
2017-08-19T01:20:28.062Z,96712.06
2017-08-19T01:22:53.869Z,96709.14
2017-08-19T01:25:32.068Z,96713.79
2017-08-19T01:27:57.851Z,96712.79
2017-08-19T01:30:23.669Z,96710.67
2017-08-19T01:32:49.454Z,96709.78
2017-08-19T01:35:15.203Z,96709.54
2017-08-19T01:37:41.012Z,96710.85
2017-08-19T01:40:06.779Z,96718.19
2017-08-19T01:42:32.551Z,96715.34
2017-08-19T01:44:58.371Z,96725.73
2017-08-19T01:47:24.187Z,96730.72
2017-08-19T01:49:49.936Z,96735.29
2017-08-19T01:52:15.735Z,96734.52
2017-08-19T01:54:41.506Z,96738.14
2017-08-19T01:57:07.313Z,96733.14
2017-08-19T01:59:33.080Z,96744.11
2017-08-19T02:01:58.844Z,96742.45
2017-08-19T02:04:24.643Z,96744.76
2017-08-19T02:06:50.404Z,96748.05
2017-08-19T02:09:16.151Z,96743.75
2017-08-19T02:11:41.948Z,96738.70
2017-08-19T02:14:07.743Z,96741.25
2017-08-19T02:16:33.507Z,96737.42
2017-08-19T02:18:59.295Z,96733.34
2017-08-19T02:21:25.047Z,96733.38
2017-08-19T02:23:50.863Z,96732.45
2017-08-19T02:26:16.638Z,96735.78
2017-08-19T02:28:42.383Z,96738.27
2017-08-19T02:31:08.146Z,96742.86
2017-08-19T02:33:33.942Z,96747.75
2017-08-19T02:35:59.698Z,96751.79
2017-08-19T02:38:25.563Z,96785.97
2017-08-19T02:40:51.358Z,96796.17
2017-08-19T02:43:17.148Z,96796.44
2017-08-19T02:45:42.951Z,96797.48
2017-08-19T02:48:08.739Z,96799.73
2017-08-19T02:50:34.508Z,96807.15
2017-08-19T02:53:00.262Z,96803.17
2017-08-19T02:55:26.047Z,96793.69
2017-08-19T02:57:51.842Z,96792.19
2017-08-19T03:00:17.649Z,96782.49
2017-08-19T03:02:43.395Z,96779.08
2017-08-19T03:05:09.159Z,96783.23
2017-08-19T03:07:34.963Z,96791.54
2017-08-19T03:10:00.960Z,96807.17
2017-08-19T03:12:26.743Z,96799.47
2017-08-19T03:14:52.527Z,96811.11
2017-08-19T03:17:18.282Z,96809.88
2017-08-19T03:19:44.055Z,96816.22
2017-08-19T03:22:09.855Z,96832.17
2017-08-19T03:24:35.619Z,96833.94
2017-08-19T03:27:01.377Z,96835.02
2017-08-19T03:29:27.215Z,96825.95
2017-08-19T03:31:52.979Z,96828.64
2017-08-19T03:34:18.759Z,96831.16
2017-08-19T03:36:44.556Z,96839.72
2017-08-19T03:39:10.307Z,96839.88
2017-08-19T03:41:36.063Z,96845.31
2017-08-19T03:44:01.855Z,96845.87
2017-08-19T03:46:27.621Z,96849.73
2017-08-19T03:48:53.406Z,96848.97
2017-08-19T03:51:19.182Z,96855.03
2017-08-19T03:53:44.941Z,96859.23
2017-08-19T03:56:10.715Z,96858.43
2017-08-19T03:58:36.496Z,96865.75
2017-08-19T04:01:02.331Z,96872.66
2017-08-19T04:03:28.215Z,96867.79
2017-08-19T04:05:54.015Z,96870.58
2017-08-19T04:08:19.801Z,96866.64
2017-08-19T04:10:45.544Z,96867.00
2017-08-19T04:13:11.363Z,96871.61
2017-08-19T04:15:37.223Z,96873.95
2017-08-19T04:18:03.021Z,96876.41
2017-08-19T04:20:28.775Z,96877.72
2017-08-19T04:22:54.569Z,96867.05
2017-08-19T04:25:20.331Z,96862.64
2017-08-19T04:27:46.099Z,96863.56
2017-08-19T04:30:11.919Z,96862.23
2017-08-19T04:32:37.676Z,96866.09
2017-08-19T04:35:03.443Z,96867.23
2017-08-19T04:37:29.231Z,96866.38
2017-08-19T04:39:55.032Z,96864.19
2017-08-19T04:42:20.862Z,96849.56
2017-08-19T04:44:46.653Z,96861.77
2017-08-19T04:47:12.415Z,96862.88
2017-08-19T04:49:38.182Z,96857.22
2017-08-19T04:52:04.776Z,96858.55
2017-08-19T04:54:30.557Z,96845.37
2017-08-19T04:56:56.355Z,96847.11
2017-08-19T04:59:22.137Z,96843.77
2017-08-19T05:01:47.907Z,96849.11
2017-08-19T05:04:13.755Z,96842.52
2017-08-19T05:06:39.567Z,96845.70
2017-08-19T05:09:05.379Z,96839.16
2017-08-19T05:11:31.207Z,96847.98
2017-08-19T05:13:57.062Z,96838.32
2017-08-19T05:16:22.867Z,96839.29
2017-08-19T05:18:48.707Z,96839.82
2017-08-19T05:21:14.504Z,96840.24
2017-08-19T05:23:40.335Z,96858.30
2017-08-19T05:26:06.105Z,96853.34
2017-08-19T05:28:31.876Z,96856.93
2017-08-19T05:30:57.635Z,96849.73
2017-08-19T05:33:23.467Z,96861.98
2017-08-19T05:35:49.243Z,96874.00
2017-08-19T05:38:15.113Z,96860.86
2017-08-19T05:40:40.942Z,96857.43
2017-08-19T05:43:06.703Z,96854.27
2017-08-19T05:45:32.499Z,96858.67
2017-08-19T05:47:58.252Z,96866.54
2017-08-19T05:50:24.009Z,96860.33
2017-08-19T05:52:49.823Z,96865.50
2017-08-19T05:55:15.586Z,96868.47
2017-08-19T05:57:41.371Z,96872.90
2017-08-19T06:00:07.995Z,96881.65
2017-08-19T06:02:33.803Z,96884.55
2017-08-19T06:04:59.583Z,96890.20
2017-08-19T06:07:25.427Z,96891.53
2017-08-19T06:09:51.238Z,96887.48
2017-08-19T06:12:17.042Z,96893.81
2017-08-19T06:14:42.900Z,96905.48
2017-08-19T06:17:08.716Z,96905.13
2017-08-19T06:19:34.491Z,96905.48
2017-08-19T06:22:00.270Z,96920.38
2017-08-19T06:24:26.093Z,96925.05
2017-08-19T06:26:51.850Z,96929.94
2017-08-19T06:29:17.654Z,96910.55
2017-08-19T06:31:43.414Z,96917.39
2017-08-19T06:34:09.513Z,96915.73
2017-08-19T06:36:35.272Z,96920.52
2017-08-19T06:39:01.040Z,96927.63
2017-08-19T06:41:26.835Z,96928.55
2017-08-19T06:43:52.628Z,96938.20
2017-08-19T06:46:18.375Z,96938.08
2017-08-19T06:48:44.137Z,96933.73
2017-08-19T06:51:09.912Z,96942.61
2017-08-19T06:53:35.681Z,96931.14
2017-08-19T06:56:01.459Z,96931.32
2017-08-19T06:58:27.299Z,96940.44
2017-08-19T07:00:53.131Z,96948.55
2017-08-19T07:03:18.899Z,96945.84
2017-08-19T07:05:44.675Z,96939.82
2017-08-19T07:08:10.459Z,96938.44
2017-08-19T07:10:36.256Z,96945.61
2017-08-19T07:13:02.079Z,96942.46
2017-08-19T07:15:27.878Z,96947.45
2017-08-19T07:17:53.652Z,96943.72
2017-08-19T07:20:19.466Z,96947.23
2017-08-19T07:22:45.212Z,96947.66
2017-08-19T07:25:11.006Z,96949.67
2017-08-19T07:27:36.800Z,96954.88
2017-08-19T07:30:02.568Z,96954.28
2017-08-19T07:32:28.330Z,96955.21
2017-08-19T07:34:54.123Z,96961.53
2017-08-19T07:37:19.871Z,96963.50
2017-08-19T07:39:45.708Z,96962.79
2017-08-19T07:42:19.564Z,96967.16
2017-08-19T07:44:45.413Z,96969.66
2017-08-19T07:47:11.186Z,96972.08
2017-08-19T07:49:36.935Z,96976.45
2017-08-19T07:52:02.734Z,96974.00
2017-08-19T07:54:28.495Z,96970.67
2017-08-19T07:56:54.247Z,96970.66
2017-08-19T08:01:51.575Z,96991.37
2017-08-19T08:04:17.320Z,96980.27
2017-08-19T08:06:43.106Z,96978.89
2017-08-19T08:09:08.921Z,96972.34
2017-08-19T08:11:34.667Z,96984.10
2017-08-19T08:14:00.440Z,96981.90
2017-08-19T08:16:26.252Z,96985.80
2017-08-19T08:18:52.080Z,96987.68
2017-08-19T08:21:17.894Z,96985.44
2017-08-19T08:23:43.651Z,96989.20
2017-08-19T08:26:09.424Z,96989.69
2017-08-19T08:28:35.335Z,96989.70
2017-08-19T08:31:01.091Z,96987.96
2017-08-19T08:33:26.856Z,96995.73
2017-08-19T08:35:52.648Z,96984.23
2017-08-19T08:38:18.442Z,96993.09
2017-08-19T08:40:44.231Z,96985.63
2017-08-19T08:43:10.020Z,96980.68
2017-08-19T08:45:35.771Z,96980.30
2017-08-19T08:48:01.577Z,96978.58
2017-08-19T08:50:27.403Z,96981.75
2017-08-19T08:52:53.196Z,96983.75
2017-08-19T08:55:18.996Z,96986.02
2017-08-19T08:57:44.754Z,96979.28
2017-08-19T09:00:10.644Z,96975.14
2017-08-19T09:02:36.439Z,96967.48
2017-08-19T09:05:02.211Z,96976.81
2017-08-19T09:07:27.971Z,96983.50
2017-08-19T09:09:53.751Z,96983.51
2017-08-19T09:12:19.551Z,96989.91
2017-08-19T09:14:45.430Z,96980.47
2017-08-19T09:17:11.199Z,96978.58
2017-08-19T09:19:37.004Z,96973.63
2017-08-19T09:22:02.775Z,96974.97
2017-08-19T09:24:28.527Z,96978.56
2017-08-19T09:26:54.299Z,96981.17
2017-08-19T09:29:20.062Z,96977.95
2017-08-19T09:31:45.862Z,96973.31
2017-08-19T09:34:11.634Z,96976.74
2017-08-19T09:36:37.418Z,96979.72
2017-08-19T09:39:03.230Z,96977.37
2017-08-19T09:41:28.991Z,96984.33
2017-08-19T09:43:54.799Z,96991.80
2017-08-19T09:46:20.539Z,96983.83
2017-08-19T09:48:46.419Z,96979.52
2017-08-19T09:51:12.245Z,96978.23
2017-08-19T09:53:37.991Z,96980.17
2017-08-19T09:56:03.746Z,96973.99
2017-08-19T09:58:29.531Z,96975.69
2017-08-19T10:00:55.336Z,96980.52
2017-08-19T10:03:21.115Z,96982.36
2017-08-19T10:05:46.883Z,96970.70
2017-08-19T10:08:25.139Z,96976.63
2017-08-19T10:11:03.101Z,96979.95
2017-08-19T10:13:28.895Z,96973.81
2017-08-19T10:15:54.657Z,96970.39
2017-08-19T10:18:20.457Z,96971.00
2017-08-19T10:20:46.210Z,96976.58
2017-08-19T10:23:12.071Z,96974.08
2017-08-19T10:25:37.852Z,96982.14
2017-08-19T10:28:03.633Z,96981.20
2017-08-19T10:30:29.420Z,96979.19
2017-08-19T10:32:55.228Z,96974.50
2017-08-19T10:35:21.000Z,96972.08
2017-08-19T10:37:46.795Z,96980.55
2017-08-19T10:40:12.558Z,96975.47
2017-08-19T10:42:38.382Z,96972.75
2017-08-19T10:45:04.149Z,96978.20
2017-08-19T10:47:29.937Z,96971.31
2017-08-19T10:49:55.883Z,96970.70
2017-08-19T10:52:21.692Z,96978.98
2017-08-19T10:54:47.453Z,96975.88
2017-08-19T10:57:13.310Z,96967.62
2017-08-19T10:59:39.064Z,96969.20
2017-08-19T11:02:04.883Z,96968.21
2017-08-19T11:04:30.659Z,96964.11
2017-08-19T11:06:56.431Z,96962.34
2017-08-19T11:09:22.218Z,96956.34
2017-08-19T11:11:48.007Z,96957.61
2017-08-19T11:14:13.778Z,96960.01
2017-08-19T11:16:39.639Z,96953.26
2017-08-19T11:19:05.396Z,96947.21
2017-08-19T11:21:31.257Z,96958.87
2017-08-19T11:23:57.052Z,96948.20
2017-08-19T11:26:22.796Z,96948.56
2017-08-19T11:28:48.658Z,96947.56
2017-08-19T11:31:14.425Z,96952.30
2017-08-19T11:33:40.169Z,96960.53
2017-08-19T11:36:06.015Z,96962.52
2017-08-19T11:38:31.843Z,96963.12
2017-08-19T11:40:57.705Z,96958.08
2017-08-19T11:43:23.503Z,96953.54
2017-08-19T11:45:49.263Z,96957.02
2017-08-19T11:48:15.125Z,96961.24
2017-08-19T11:50:40.908Z,96957.20
2017-08-19T11:53:06.803Z,96954.82
2017-08-19T11:55:32.640Z,96954.63
2017-08-19T11:57:58.402Z,96950.05
2017-08-19T12:00:24.230Z,96950.81
2017-08-19T12:02:50.091Z,96959.80
2017-08-19T12:05:15.835Z,96952.94
2017-08-19T12:07:41.720Z,96956.98
2017-08-19T12:10:07.488Z,96962.13
2017-08-19T12:12:33.235Z,96958.30
2017-08-19T12:14:59.039Z,96961.41
2017-08-19T12:17:24.807Z,96960.09
2017-08-19T12:19:50.575Z,96960.48
2017-08-19T12:22:16.368Z,96963.25
2017-08-19T12:24:42.167Z,96966.61
2017-08-19T12:27:07.935Z,96955.84
2017-08-19T12:29:33.715Z,96954.03
2017-08-19T12:31:59.515Z,96958.33
2017-08-19T12:34:25.289Z,96958.63
2017-08-19T12:36:51.078Z,96961.53
2017-08-19T12:39:16.871Z,96966.03
2017-08-19T12:41:42.661Z,96967.09
2017-08-19T12:44:08.496Z,96966.80
2017-08-19T12:46:34.235Z,96962.45
2017-08-19T12:48:59.995Z,96965.70
2017-08-19T12:51:25.776Z,96958.61
2017-08-19T12:53:51.574Z,96961.69
2017-08-19T12:56:17.517Z,96951.91
2017-08-19T12:58:43.319Z,96948.99
2017-08-19T13:01:09.127Z,96954.31
2017-08-19T13:03:34.892Z,96952.47
2017-08-19T13:06:00.670Z,96949.78
2017-08-19T13:08:26.455Z,96947.34
2017-08-19T13:10:52.229Z,96949.58
2017-08-19T13:13:18.015Z,96942.31
2017-08-19T13:15:43.807Z,96950.13
2017-08-19T13:18:09.563Z,96937.99
2017-08-19T13:20:35.356Z,96941.34
2017-08-19T13:23:01.183Z,96938.71
2017-08-19T13:25:26.975Z,96946.59
2017-08-19T13:27:52.737Z,96939.80
2017-08-19T13:30:18.521Z,96946.17
2017-08-19T13:32:44.384Z,96958.36
2017-08-19T13:35:10.168Z,96958.63
2017-08-19T13:37:35.943Z,96954.83
2017-08-19T13:40:01.759Z,96964.23
2017-08-19T13:42:27.516Z,96959.09
2017-08-19T13:44:53.283Z,96960.20
2017-08-19T13:47:19.103Z,96953.75
2017-08-19T13:49:44.871Z,96961.47
2017-08-19T13:52:10.672Z,96955.95
2017-08-19T13:54:37.306Z,96951.39
2017-08-19T13:57:03.139Z,96958.03
2017-08-19T13:59:29.021Z,96953.14
2017-08-19T14:01:54.848Z,96952.43
2017-08-19T14:04:20.635Z,96952.61
2017-08-19T14:06:46.402Z,96944.66
2017-08-19T14:09:12.174Z,96944.45
2017-08-19T14:11:37.963Z,96944.11
2017-08-19T14:14:03.724Z,96946.45
2017-08-19T14:16:29.523Z,96942.48
2017-08-19T14:18:55.279Z,96939.66
2017-08-19T14:21:21.084Z,96949.35
2017-08-19T14:23:46.879Z,96958.22
2017-08-19T14:26:12.731Z,96953.89
2017-08-19T14:28:38.525Z,96953.19
2017-08-19T14:31:04.280Z,96944.70
2017-08-19T14:33:30.078Z,96944.09
2017-08-19T14:35:55.931Z,96949.67
2017-08-19T14:38:21.691Z,96948.73
2017-08-19T14:40:47.472Z,96949.00
2017-08-19T14:43:13.227Z,96946.89
2017-08-19T14:45:39.019Z,96947.55
2017-08-19T14:48:04.779Z,96939.84
2017-08-19T14:50:30.535Z,96948.67
2017-08-19T14:52:57.280Z,96947.42
2017-08-19T14:55:23.035Z,96949.01
2017-08-19T14:57:48.803Z,96938.98
2017-08-19T15:00:14.576Z,96938.77
2017-08-19T15:02:40.413Z,96945.21
2017-08-19T15:05:06.222Z,96935.09
2017-08-19T15:07:32.043Z,96930.19
2017-08-19T15:09:57.780Z,96938.63
2017-08-19T15:12:23.552Z,96939.58
2017-08-19T15:14:49.364Z,96939.41
2017-08-19T15:17:15.163Z,96942.39
2017-08-19T15:19:40.910Z,96950.70
2017-08-19T15:22:06.681Z,96951.94
2017-08-19T15:24:32.527Z,96952.77
2017-08-19T15:26:58.327Z,96948.88
2017-08-19T15:29:24.103Z,96945.41
2017-08-19T15:31:49.855Z,96946.48
2017-08-19T15:34:15.653Z,96952.55
2017-08-19T15:36:41.419Z,96955.36
2017-08-19T15:39:07.274Z,96951.42
2017-08-19T15:41:33.077Z,96948.92
2017-08-19T15:43:58.855Z,96963.41
2017-08-19T15:46:24.624Z,96952.52
2017-08-19T15:48:50.395Z,96964.67
2017-08-19T15:51:16.203Z,96957.28
2017-08-19T15:53:42.016Z,96958.41
2017-08-19T15:56:07.851Z,96958.25
2017-08-19T15:58:33.607Z,96969.56
2017-08-19T16:00:59.378Z,96966.59
2017-08-19T16:03:25.132Z,96960.17
2017-08-19T16:05:50.918Z,96963.17
2017-08-19T16:08:16.682Z,96961.78
2017-08-19T16:10:42.435Z,96960.64
2017-08-19T16:13:08.218Z,96960.09
2017-08-19T16:15:33.976Z,96961.22
2017-08-19T16:17:59.737Z,96965.39
2017-08-19T16:20:25.559Z,96972.42
2017-08-19T16:22:51.307Z,96970.95
2017-08-19T16:25:17.068Z,96978.30
2017-08-19T16:27:42.891Z,96979.39
2017-08-19T16:30:08.645Z,96977.05
2017-08-19T16:32:34.479Z,96974.45
2017-08-19T16:35:00.228Z,96973.27
2017-08-19T16:37:26.059Z,96984.53
2017-08-19T16:39:51.945Z,96986.00
2017-08-19T16:42:17.727Z,96980.05
2017-08-19T16:44:43.555Z,96975.61
2017-08-19T16:47:09.351Z,96975.77
2017-08-19T16:49:35.194Z,96981.86
2017-08-19T16:52:00.971Z,96976.45
2017-08-19T16:54:26.758Z,96983.66
2017-08-19T16:56:52.512Z,96981.48
2017-08-19T16:59:18.275Z,96977.88
2017-08-19T17:01:44.047Z,96982.50
2017-08-19T17:04:09.831Z,96981.67
2017-08-19T17:06:35.591Z,96980.42
2017-08-19T17:09:01.375Z,96989.23
2017-08-19T17:11:27.179Z,96988.20
2017-08-19T17:13:52.981Z,96988.53
2017-08-19T17:16:18.767Z,96989.80
2017-08-19T17:18:44.528Z,96978.62
2017-08-19T17:21:10.299Z,96990.30
2017-08-19T17:23:36.080Z,96990.61
2017-08-19T17:26:01.866Z,97002.62
2017-08-19T17:28:27.611Z,96997.67
2017-08-19T17:30:53.390Z,96999.73
2017-08-19T17:33:19.159Z,97002.70
2017-08-19T17:35:44.935Z,97000.29
2017-08-19T17:38:10.735Z,97006.30
2017-08-19T17:40:36.479Z,97005.75
2017-08-19T17:43:02.235Z,97011.75
2017-08-19T17:45:28.035Z,97014.34
2017-08-19T17:47:53.859Z,97018.86
2017-08-19T17:50:19.652Z,97014.70
2017-08-19T17:52:45.399Z,97021.59
2017-08-19T17:55:11.156Z,97017.55
2017-08-19T17:57:36.937Z,97020.56
2017-08-19T18:00:02.739Z,97010.64
2017-08-19T18:02:28.474Z,97023.00
2017-08-19T18:04:54.242Z,97029.75
2017-08-19T18:07:20.015Z,97028.49
2017-08-19T18:09:45.820Z,97034.80
2017-08-19T18:12:11.574Z,97034.92
2017-08-19T18:14:37.336Z,97040.78
2017-08-19T18:17:03.131Z,97044.42
2017-08-19T18:19:30.014Z,97042.33
2017-08-19T18:21:55.808Z,97047.34
2017-08-19T18:24:21.627Z,97047.59
2017-08-19T18:26:47.387Z,97046.66
2017-08-19T18:29:13.151Z,97048.72
2017-08-19T18:31:38.964Z,97051.31
2017-08-19T18:34:05.311Z,97051.73
2017-08-19T18:36:31.052Z,97056.64
2017-08-19T18:38:56.841Z,97053.81
2017-08-19T18:41:22.604Z,97056.55
2017-08-19T18:43:48.354Z,97056.09
2017-08-19T18:46:14.195Z,97057.91
2017-08-19T18:48:40.011Z,97064.67
2017-08-19T18:51:05.786Z,97063.15
2017-08-19T18:53:31.547Z,97073.50
2017-08-19T18:55:57.339Z,97073.24
2017-08-19T18:58:23.087Z,97084.56
2017-08-19T19:00:48.927Z,97080.33
2017-08-19T19:03:14.766Z,97079.76
2017-08-19T19:08:19.567Z,97081.13
2017-08-19T19:10:45.358Z,97091.52
2017-08-19T19:13:11.111Z,97092.18
2017-08-19T19:15:36.983Z,97095.05
2017-08-19T19:18:02.784Z,97098.31
2017-08-19T19:20:28.572Z,97104.17
2017-08-19T19:22:54.319Z,97106.95
2017-08-19T19:25:20.203Z,97104.98
2017-08-19T19:27:45.959Z,97104.07
2017-08-19T19:30:11.711Z,97113.35
2017-08-19T19:32:37.492Z,97111.01
2017-08-19T19:35:03.291Z,97113.81
2017-08-19T19:37:29.039Z,97110.52
2017-08-19T19:39:54.911Z,97116.95
2017-08-19T19:42:20.755Z,97109.77
2017-08-19T19:44:46.538Z,97115.09
2017-08-19T19:47:12.291Z,97116.78
2017-08-19T19:49:38.064Z,97115.28
2017-08-19T19:52:03.847Z,97124.45
2017-08-19T19:54:29.634Z,97133.71
2017-08-19T19:56:55.451Z,97133.69
2017-08-19T19:59:21.331Z,97132.11
2017-08-19T20:01:47.095Z,97136.67
2017-08-19T20:04:12.879Z,97139.00
2017-08-19T20:06:38.624Z,97141.22
2017-08-19T20:09:04.415Z,97142.83
2017-08-19T20:13:55.943Z,97141.91
2017-08-19T20:16:21.730Z,97141.02
2017-08-19T20:18:47.490Z,97143.64
2017-08-19T20:21:13.291Z,97143.04
2017-08-19T20:23:39.043Z,97136.84
2017-08-19T20:26:04.825Z,97142.67
2017-08-19T20:28:30.567Z,97146.84
2017-08-19T20:30:56.384Z,97157.81
2017-08-19T20:33:22.175Z,97155.55
2017-08-19T20:35:47.921Z,97158.23
2017-08-19T20:38:13.699Z,97166.05
2017-08-19T20:40:39.547Z,97164.30
2017-08-19T20:43:05.327Z,97165.66
2017-08-19T20:45:31.090Z,97166.30
2017-08-19T20:47:56.862Z,97170.07
2017-08-19T20:50:22.615Z,97166.70
2017-08-19T20:52:48.422Z,97169.33
2017-08-19T20:55:14.171Z,97170.83
2017-08-19T20:57:39.972Z,97169.59
2017-08-19T21:00:05.727Z,97171.11
2017-08-19T21:02:31.496Z,97161.62
2017-08-19T21:04:57.288Z,97161.18
2017-08-19T21:07:23.051Z,97160.89
2017-08-19T21:09:49.109Z,97166.69
2017-08-19T21:12:14.951Z,97165.69
2017-08-19T21:14:40.707Z,97167.53
2017-08-19T21:17:06.516Z,97173.09
2017-08-19T21:19:32.262Z,97173.95
2017-08-19T21:21:58.032Z,97173.45
2017-08-19T21:24:23.820Z,97169.28
2017-08-19T21:26:49.671Z,97176.73
2017-08-19T21:29:15.504Z,97179.17
2017-08-19T21:31:41.303Z,97181.42
2017-08-19T21:34:07.067Z,97177.38
2017-08-19T21:36:32.854Z,97174.12
2017-08-19T21:38:58.623Z,97178.67
2017-08-19T21:41:24.428Z,97174.41
2017-08-19T21:43:50.207Z,97175.81
2017-08-19T21:46:15.951Z,97175.98
2017-08-19T21:48:41.779Z,97177.80
2017-08-19T21:51:07.579Z,97178.45
2017-08-19T21:53:33.439Z,97186.08
2017-08-19T21:55:59.203Z,97177.19
2017-08-19T21:58:25.029Z,97180.02
2017-08-19T22:00:50.824Z,97182.44
2017-08-19T22:03:16.631Z,97175.66
2017-08-19T22:05:42.461Z,97182.00
2017-08-19T22:08:08.231Z,97180.60
2017-08-19T22:10:33.999Z,97172.63
2017-08-19T22:12:59.793Z,97176.76
2017-08-19T22:15:25.576Z,97178.17
2017-08-19T22:17:51.323Z,97181.69
2017-08-19T22:20:17.116Z,97176.82
2017-08-19T22:22:42.916Z,97180.45
2017-08-19T22:25:08.679Z,97174.87
2017-08-19T22:27:34.531Z,97181.95
2017-08-19T22:30:00.298Z,97174.47
2017-08-19T22:32:26.107Z,97185.36
2017-08-19T22:34:51.915Z,97182.89
2017-08-19T22:37:17.691Z,97177.30
2017-08-19T22:39:43.475Z,97177.66
2017-08-19T22:42:09.228Z,97182.72
2017-08-19T22:44:34.982Z,97183.41
2017-08-19T22:47:00.757Z,97176.84
2017-08-19T22:49:26.640Z,97185.00
2017-08-19T22:51:52.415Z,97184.97
2017-08-19T22:54:18.287Z,97179.05
2017-08-19T22:56:44.055Z,97176.45
2017-08-19T22:59:09.813Z,97170.01
2017-08-19T23:01:35.651Z,97174.95
2017-08-19T23:04:01.433Z,97173.33
2017-08-19T23:06:27.223Z,97182.31
2017-08-19T23:08:52.999Z,97184.83
2017-08-19T23:11:18.747Z,97177.70
2017-08-19T23:13:44.527Z,97178.69
2017-08-19T23:16:10.287Z,97171.77
2017-08-19T23:18:36.122Z,97174.28
2017-08-19T23:21:01.881Z,97170.34
2017-08-19T23:23:27.758Z,97167.95
2017-08-19T23:25:53.535Z,97163.46
2017-08-19T23:28:19.292Z,97155.97
2017-08-19T23:30:45.088Z,97159.30
2017-08-19T23:33:10.858Z,97161.02
2017-08-19T23:35:36.622Z,97163.89
2017-08-19T23:38:02.416Z,97157.92
2017-08-19T23:40:28.179Z,97157.60
2017-08-19T23:42:53.947Z,97161.34
2017-08-19T23:45:19.736Z,97159.50
2017-08-19T23:47:45.488Z,97153.48
2017-08-19T23:50:11.308Z,97155.09
2017-08-19T23:52:37.101Z,97156.39
2017-08-19T23:55:02.903Z,97154.82
2017-08-19T23:57:28.649Z,97153.98
2017-08-19T23:59:54.423Z,97155.38
